EGTU weather

Dunkeswell Airport
Dunkeswell, England, United Kingdom

Public forecast

Using degrees Celsius for public forecast. Weather courtesy of forecast.io.

METAR (pilot weather report)

Report is more than 2 hours old.

Closest report is Exeter International Airport, 10.2 nm (18.8 km) SW. Retrieved 2019/04/19 23:20 UTC (4 hours ago):

EGTE 192320Z VRB02KT CAVOK 10/07 Q1030

TAF (pilot weather forecast)

Forecast is more than 12 hours old.

Closest forecast is Exeter International Airport, 10.2 nm (18.8 km) SW. Retrieved 2012/04/19 12:15 UTC (7 years ago):

TAF TAF EGTE 191401Z 1912/1924 31016KT 9999 SCT030 SCT035 PROB40 TEMPO 1915/1918 7000 SHRA BKN014